TimeMST,TemperatureF,Dew PointF,Humidity,Sea Level PressureIn,VisibilityMPH,Wind Direction,Wind SpeedMPH,Gust SpeedMPH,PrecipitationIn,Events,Conditions,WindDirDegrees,DateUTC
12:18 AM,51.8,-9999,N/A,29.97,6.0,ESE,6.9,-,N/A,Rain,Light Rain,120,2013-11-23 07:18:00
12:28 AM,53.6,-9999,N/A,29.98,8.0,SE,8.1,-,N/A,Rain,Light Rain,140,2013-11-23 07:28:00
12:38 AM,53.6,-9999,N/A,29.99,7.0,East,11.5,-,N/A,Rain,Light Rain,100,2013-11-23 07:38:00
12:58 AM,51.8,-9999,N/A,29.97,10.0,East,12.7,-,0.05,Rain,Light Rain,90,2013-11-23 07:58:00
1:38 AM,53.6,-9999,N/A,29.96,9.0,ESE,6.9,-,N/A,Rain,Light Rain,110,2013-11-23 08:38:00
1:48 AM,53.6,-9999,N/A,29.96,9.0,East,6.9,-,N/A,Rain,Light Rain,90,2013-11-23 08:48:00
1:58 AM,53.6,-9999,N/A,29.96,9.0,ENE,9.2,-,0.05,Rain,Light Rain,70,2013-11-23 08:58:00
2:08 AM,53.6,-9999,N/A,29.96,10.0,East,9.2,-,N/A,Rain,Light Rain,90,2013-11-23 09:08:00
2:28 AM,53.6,-9999,N/A,29.99,9.0,SSE,10.4,-,N/A,Rain,Light Rain,150,2013-11-23 09:28:00
2:38 AM,51.8,-9999,N/A,29.99,6.0,SE,9.2,-,N/A,Rain,Light Rain,140,2013-11-23 09:38:00
2:48 AM,51.8,-9999,N/A,29.98,6.0,ESE,8.1,-,N/A,Rain,Light Rain,110,2013-11-23 09:48:00
2:58 AM,51.8,-9999,N/A,29.97,8.0,ESE,5.8,-,0.07,Rain,Light Rain,110,2013-11-23 09:58:00
3:08 AM,51.8,-9999,N/A,29.98,10.0,ESE,3.5,-,N/A,Rain,Light Rain,120,2013-11-23 10:08:00
3:48 AM,53.6,-9999,N/A,29.95,10.0,ENE,5.8,-,N/A,Rain,Light Rain,60,2013-11-23 10:48:00
3:58 AM,53.6,-9999,N/A,29.96,10.0,East,2.3,-,0.01,,Light Drizzle,100,2013-11-23 10:58:00
4:18 AM,53.6,-9999,N/A,29.97,10.0,SSE,2.3,-,N/A,,Overcast,160,2013-11-23 11:18:00
4:38 AM,53.6,-9999,N/A,29.97,10.0,SSE,3.5,-,N/A,,Overcast,150,2013-11-23 11:38:00
4:58 AM,53.6,-9999,N/A,29.99,10.0,SSE,4.6,-,0.00,,Overcast,160,2013-11-23 11:58:00
5:08 AM,53.6,-9999,N/A,30.00,10.0,SSE,6.9,-,N/A,,Light Drizzle,160,2013-11-23 12:08:00
5:48 AM,53.6,-9999,N/A,29.98,10.0,East,2.3,-,N/A,,Light Drizzle,90,2013-11-23 12:48:00
5:58 AM,53.6,-9999,N/A,29.98,10.0,ESE,3.5,-,0.02,,Mostly Cloudy,110,2013-11-23 12:58:00
6:18 AM,53.6,-9999,N/A,30.01,10.0,SSE,5.8,-,N/A,,Overcast,150,2013-11-23 13:18:00
6:38 AM,53.6,-9999,N/A,29.98,10.0,ESE,2.3,-,N/A,,Overcast,110,2013-11-23 13:38:00
6:48 AM,53.6,-9999,N/A,29.99,10.0,ESE,5.8,-,N/A,,Overcast,120,2013-11-23 13:48:00
6:58 AM,53.6,-9999,N/A,30.00,10.0,SE,8.1,-,0.00,,Overcast,140,2013-11-23 13:58:00
7:28 AM,53.6,-9999,N/A,30.01,10.0,East,5.8,-,N/A,,Mostly Cloudy,100,2013-11-23 14:28:00
7:58 AM,53.4,52.5,97,30.03,10.0,East,10.4,-,N/A,,Overcast,100,2013-11-23 14:58:00
8:28 AM,53.6,51.8,94,30.02,10.0,East,5.8,-,N/A,,Mostly Cloudy,90,2013-11-23 15:28:00
8:58 AM,53.8,51.3,91,30.03,10.0,East,10.4,-,N/A,,Mostly Cloudy,80,2013-11-23 15:58:00
9:18 AM,53.6,50.0,88,30.04,10.0,East,10.4,-,N/A,,Mostly Cloudy,90,2013-11-23 16:18:00
9:28 AM,53.6,50.0,88,30.04,10.0,East,10.4,-,N/A,,Scattered Clouds,90,2013-11-23 16:28:00
9:38 AM,55.4,50.0,82,30.03,10.0,East,9.2,-,N/A,,Mostly Cloudy,90,2013-11-23 16:38:00
9:48 AM,55.4,50.0,82,30.03,10.0,East,11.5,-,N/A,,Scattered Clouds,100,2013-11-23 16:48:00
9:58 AM,55.0,50.9,86,30.03,10.0,East,10.4,-,N/A,,Scattered Clouds,90,2013-11-23 16:58:00
10:58 AM,56.3,50.9,82,30.03,10.0,ENE,10.4,-,N/A,,Scattered Clouds,60,2013-11-23 17:58:00
11:48 AM,57.2,50.0,77,30.03,10.0,East,9.2,-,N/A,,Mostly Cloudy,90,2013-11-23 18:48:00
11:58 AM,57.4,49.3,74,30.02,10.0,East,8.1,-,N/A,,Mostly Cloudy,80,2013-11-23 18:58:00
12:58 PM,58.1,48.0,69,30.01,10.0,ESE,10.4,-,N/A,,Mostly Cloudy,110,2013-11-23 19:58:00
1:08 PM,59.0,46.4,63,30.01,10.0,East,9.2,-,N/A,,Scattered Clouds,80,2013-11-23 20:08:00
1:38 PM,59.0,46.4,63,30.01,10.0,East,12.7,-,N/A,,Mostly Cloudy,100,2013-11-23 20:38:00
1:58 PM,58.5,44.8,60,29.99,10.0,ESE,12.7,-,N/A,,Mostly Cloudy,110,2013-11-23 20:58:00
2:58 PM,58.6,45.5,62,30.00,10.0,East,11.5,-,N/A,,Scattered Clouds,90,2013-11-23 21:58:00
3:58 PM,57.6,45.5,64,30.01,10.0,ESE,8.1,-,N/A,,Partly Cloudy,110,2013-11-23 22:58:00
4:18 PM,57.2,44.6,63,30.01,10.0,East,5.8,-,N/A,,Mostly Cloudy,90,2013-11-23 23:18:00
4:58 PM,57.6,44.2,61,30.01,10.0,ENE,9.2,-,N/A,,Overcast,70,2013-11-23 23:58:00
5:58 PM,56.7,45.3,66,30.02,10.0,East,4.6,-,N/A,,Overcast,90,2013-11-24 00:58:00
6:08 PM,57.2,44.6,63,30.02,10.0,East,4.6,-,N/A,,Overcast,90,2013-11-24 01:08:00
6:28 PM,57.2,44.6,63,30.03,10.0,ESE,4.6,-,N/A,,Overcast,110,2013-11-24 01:28:00
6:58 PM,56.3,42.8,61,30.04,10.0,SE,9.2,-,N/A,,Mostly Cloudy,130,2013-11-24 01:58:00
7:18 PM,55.4,46.4,72,30.05,10.0,ESE,6.9,-,N/A,,Light Drizzle,120,2013-11-24 02:18:00
7:58 PM,54.3,44.2,69,30.06,10.0,ESE,10.4,-,0.00,,Clear,110,2013-11-24 02:58:00
8:38 PM,53.6,46.4,77,30.07,10.0,East,8.1,-,N/A,,Mostly Cloudy,90,2013-11-24 03:38:00
8:58 PM,52.5,47.8,84,30.08,10.0,East,5.8,-,0.00,Rain,Light Rain,90,2013-11-24 03:58:00
9:08 PM,51.8,48.2,88,30.08,9.0,ENE,8.1,-,N/A,Rain,Light Rain,60,2013-11-24 04:08:00
9:18 PM,51.8,48.2,88,30.08,9.0,NE,6.9,-,N/A,Rain,Light Rain,50,2013-11-24 04:18:00
9:28 PM,51.8,48.2,88,30.08,10.0,NE,5.8,-,N/A,Rain,Light Rain,40,2013-11-24 04:28:00
9:38 PM,51.8,48.2,88,30.08,10.0,NNE,6.9,-,N/A,Rain,Light Rain,20,2013-11-24 04:38:00
9:58 PM,51.6,47.7,86,30.08,10.0,NE,4.6,-,0.02,,Scattered Clouds,50,2013-11-24 04:58:00
10:08 PM,51.8,48.2,88,30.08,10.0,NE,6.9,-,N/A,,Mostly Cloudy,50,2013-11-24 05:08:00
10:58 PM,51.8,46.9,83,30.08,10.0,NNE,8.1,-,N/A,,Overcast,20,2013-11-24 05:58:00
11:18 PM,51.8,48.2,88,30.08,10.0,North,3.5,-,N/A,,Overcast,350,2013-11-24 06:18:00
11:58 PM,51.8,47.8,86,30.08,10.0,NNW,4.6,-,N/A,,Mostly Cloudy,340,2013-11-24 06:58:00